Time;durP1;ratioP1;P1;durP2;ratioP2;P2;SDS_P1;SDS_P2;PMS_P1;PMS_P2;Temp;Humidity;BMP_temperature;BMP_pressure;BME280_temperature;BME280_humidity;BME280_pressure;Samples;Min_cycle;Max_cycle;Signal;HPM_P1;HPM_P2
2023/06/04 00:01:53;;;;;;;7.93;2.97;;;11.00;98.00;;;;;;4983407;28;20034;-79
2023/06/04 00:04:18;;;;;;;8.70;3.45;;;10.90;98.80;;;;;;5005578;28;20506;-79
2023/06/04 00:06:44;;;;;;;7.75;3.25;;;10.90;99.20;;;;;;4991774;28;20045;-79
2023/06/04 00:09:10;;;;;;;4.15;3.75;;;10.80;99.10;;;;;;5006932;28;20042;-79
2023/06/04 00:11:36;;;;;;;6.45;3.40;;;10.80;99.40;;;;;;4993941;28;20042;-79
2023/06/04 00:14:02;;;;;;;5.00;3.65;;;10.80;99.80;;;;;;4990928;28;20067;-79
2023/06/04 00:16:28;;;;;;;6.93;3.42;;;10.70;99.90;;;;;;4969438;28;20426;-79
2023/06/04 00:18:54;;;;;;;4.93;3.67;;;10.70;99.90;;;;;;5000249;28;20088;-79
2023/06/04 00:21:20;;;;;;;9.23;4.13;;;10.70;99.90;;;;;;5007805;28;20169;-79
2023/06/04 00:23:45;;;;;;;4.78;3.55;;;10.60;99.90;;;;;;5008738;28;20044;-80
2023/06/04 00:26:11;;;;;;;7.13;3.42;;;10.60;99.90;;;;;;4992742;28;20080;-80
2023/06/04 00:28:37;;;;;;;5.50;3.63;;;10.50;99.90;;;;;;4975113;28;20109;-79
2023/06/04 00:31:05;;;;;;;6.15;3.83;;;10.50;99.90;;;;;;4992537;28;20136;-79
2023/06/04 00:33:31;;;;;;;5.47;3.72;;;10.50;99.90;;;;;;4992176;28;20081;-79
2023/06/04 00:35:57;;;;;;;8.25;3.40;;;10.40;99.90;;;;;;4993028;28;20165;-80
2023/06/04 00:38:23;;;;;;;7.43;3.80;;;10.40;99.90;;;;;;4975780;28;20558;-79
2023/06/04 00:40:48;;;;;;;6.05;3.90;;;10.40;99.90;;;;;;5023896;28;20096;-79
2023/06/04 00:43:14;;;;;;;7.32;4.03;;;10.30;99.90;;;;;;5007833;28;20041;-79
2023/06/04 00:45:41;;;;;;;9.75;4.40;;;10.40;99.90;;;;;;4990616;28;20048;-80
2023/06/04 00:48:07;;;;;;;6.63;3.92;;;10.30;99.90;;;;;;5009962;28;20042;-79
2023/06/04 00:50:35;;;;;;;9.93;4.75;;;10.30;99.90;;;;;;4992285;28;20447;-79
2023/06/04 00:53:01;;;;;;;11.45;4.80;;;10.30;99.90;;;;;;5024866;28;20502;-80
2023/06/04 00:55:27;;;;;;;9.00;4.70;;;10.30;99.90;;;;;;5008509;28;20042;-79
2023/06/04 00:57:52;;;;;;;11.88;4.55;;;10.30;99.90;;;;;;4991290;28;20034;-79
2023/06/04 01:00:19;;;;;;;10.93;4.53;;;10.30;99.90;;;;;;5005778;28;20034;-79
2023/06/04 01:02:50;;;;;;;8.95;5.03;;;10.20;99.90;;;;;;4990975;28;20046;-79
2023/06/04 01:05:19;;;;;;;9.57;4.90;;;10.20;99.90;;;;;;5010805;28;20041;-80
2023/06/04 01:07:46;;;;;;;9.93;5.05;;;10.20;99.90;;;;;;4990990;28;20038;-79
2023/06/04 01:10:13;;;;;;;10.95;4.90;;;10.10;99.90;;;;;;5007845;28;20081;-79
2023/06/04 01:12:44;;;;;;;9.38;4.55;;;10.20;99.90;;;;;;5007031;28;20052;-79
2023/06/04 01:15:11;;;;;;;9.05;4.88;;;10.10;99.90;;;;;;5001490;28;20507;-80
2023/06/04 01:17:51;;;;;;;9.63;4.95;;;10.10;99.90;;;;;;4974290;28;20038;-79
2023/06/04 01:20:32;;;;;;;15.00;5.80;;;10.10;99.90;;;;;;4985010;28;20121;-79
2023/06/04 01:23:42;;;;;;;11.43;5.13;;;10.00;99.90;;;;;;4980588;28;20070;-79
2023/06/04 01:26:10;;;;;;;9.30;4.53;;;10.00;99.90;;;;;;4982807;28;20189;-79
2023/06/04 01:28:37;;;;;;;8.10;4.60;;;10.00;99.90;;;;;;4957744;28;20038;-79
2023/06/04 01:31:07;;;;;;;12.88;5.63;;;10.00;99.90;;;;;;4981506;28;20049;-79
2023/06/04 01:33:33;;;;;;;10.23;5.30;;;9.90;99.90;;;;;;4984987;28;20061;-79
2023/06/04 01:36:00;;;;;;;10.50;4.82;;;9.90;99.90;;;;;;4985126;28;20643;-79
2023/06/04 01:38:27;;;;;;;11.95;4.85;;;9.90;99.90;;;;;;4974205;28;20494;-79
2023/06/04 01:40:56;;;;;;;11.77;4.82;;;9.80;99.90;;;;;;4994124;28;20400;-79
2023/06/04 01:43:22;;;;;;;11.60;5.45;;;9.80;99.90;;;;;;4986270;28;20030;-79
2023/06/04 01:45:48;;;;;;;14.70;5.43;;;9.80;99.90;;;;;;4988496;28;20095;-79
2023/06/04 01:48:14;;;;;;;12.27;5.13;;;9.80;99.90;;;;;;5010936;28;20121;-80
2023/06/04 01:50:40;;;;;;;9.98;5.70;;;9.80;99.90;;;;;;4947313;28;20518;-79
2023/06/04 01:53:06;;;;;;;11.07;6.28;;;9.70;99.90;;;;;;4979087;28;20040;-79
2023/06/04 01:55:33;;;;;;;9.95;5.57;;;9.70;99.90;;;;;;4968193;28;20049;-79
2023/06/04 01:57:59;;;;;;;14.95;6.15;;;9.70;99.90;;;;;;4995233;28;20065;-79
2023/06/04 02:00:25;;;;;;;11.63;5.35;;;9.70;99.90;;;;;;4956758;28;20088;-79
2023/06/04 02:02:51;;;;;;;14.57;5.32;;;9.70;99.90;;;;;;5004636;28;20033;-79
2023/06/04 02:05:17;;;;;;;9.80;5.70;;;9.70;99.90;;;;;;4983975;28;20046;-79
2023/06/04 02:07:45;;;;;;;12.35;5.57;;;9.60;99.90;;;;;;4982552;28;20050;-79
2023/06/04 02:10:12;;;;;;;14.25;6.25;;;9.60;99.90;;;;;;4998394;28;20038;-79
2023/06/04 02:12:40;;;;;;;10.57;5.65;;;9.60;99.90;;;;;;4984001;28;20112;-79
2023/06/04 02:15:09;;;;;;;13.43;6.45;;;9.60;99.90;;;;;;5005004;28;20105;-79
2023/06/04 02:17:39;;;;;;;11.05;6.25;;;9.60;99.90;;;;;;4987507;28;20034;-79
2023/06/04 02:20:06;;;;;;;12.05;6.10;;;9.50;99.90;;;;;;4988429;28;20033;-79
2023/06/04 02:22:31;;;;;;;14.60;6.68;;;9.50;99.90;;;;;;4995259;28;20122;-79
2023/06/04 02:24:57;;;;;;;12.15;5.75;;;9.50;99.90;;;;;;4967687;28;20570;-79
2023/06/04 02:27:23;;;;;;;16.10;6.82;;;9.50;99.90;;;;;;4954098;28;20168;-79
2023/06/04 02:29:48;;;;;;;14.50;6.72;;;9.50;99.90;;;;;;4947907;28;20038;-79
2023/06/04 02:32:14;;;;;;;12.85;6.03;;;9.40;99.90;;;;;;4968001;28;20045;-79
2023/06/04 02:34:40;;;;;;;17.50;7.57;;;9.40;99.90;;;;;;4988210;28;20050;-79
2023/06/04 02:37:06;;;;;;;15.75;6.40;;;9.40;99.90;;;;;;4987665;28;20045;-79
2023/06/04 02:39:31;;;;;;;14.00;6.25;;;9.40;99.90;;;;;;4987191;28;20045;-79
2023/06/04 02:41:57;;;;;;;12.45;6.25;;;9.40;99.90;;;;;;4981924;28;20033;-79
2023/06/04 02:44:23;;;;;;;14.40;6.07;;;9.40;99.90;;;;;;5002398;28;20118;-79
2023/06/04 02:46:48;;;;;;;18.17;6.78;;;9.40;99.90;;;;;;4971398;28;20044;-79
2023/06/04 02:49:14;;;;;;;12.02;6.85;;;9.30;99.90;;;;;;4982858;28;20125;-79
2023/06/04 02:51:43;;;;;;;17.77;6.80;;;9.30;99.90;;;;;;4970747;28;20056;-79
2023/06/04 02:54:09;;;;;;;14.15;6.45;;;9.30;99.90;;;;;;4986224;28;20671;-79
2023/06/04 02:56:36;;;;;;;13.50;6.63;;;9.30;99.90;;;;;;4974070;28;20038;-79
2023/06/04 02:59:03;;;;;;;16.05;6.13;;;9.30;99.90;;;;;;4987495;28;20438;-79
2023/06/04 03:01:29;;;;;;;13.80;6.40;;;9.30;99.90;;;;;;5004307;28;20100;-79
2023/06/04 03:03:56;;;;;;;13.77;5.72;;;9.30;99.90;;;;;;5004812;28;20686;-79
2023/06/04 03:06:23;;;;;;;16.05;6.80;;;9.30;99.90;;;;;;4987953;28;20034;-79
2023/06/04 03:08:52;;;;;;;11.00;6.43;;;9.30;99.90;;;;;;4968688;28;20140;-78
2023/06/04 03:11:21;;;;;;;13.77;6.32;;;9.20;99.90;;;;;;4995715;28;20040;-79
2023/06/04 03:13:48;;;;;;;18.52;7.43;;;9.20;99.90;;;;;;4969208;28;20045;-79
2023/06/04 03:16:14;;;;;;;12.68;7.38;;;9.20;99.90;;;;;;5007094;28;20140;-79
2023/06/04 03:18:41;;;;;;;15.85;6.68;;;9.20;99.90;;;;;;5006262;28;20056;-79
2023/06/04 03:21:07;;;;;;;12.05;6.25;;;9.20;99.90;;;;;;4969464;28;20395;-79
2023/06/04 03:23:34;;;;;;;15.98;6.95;;;9.20;99.90;;;;;;5006045;28;20076;-79
2023/06/04 03:26:04;;;;;;;14.75;6.25;;;9.20;99.90;;;;;;4998487;28;20071;-79
2023/06/04 03:28:31;;;;;;;17.90;7.60;;;9.20;99.90;;;;;;5004753;28;20482;-79
2023/06/04 03:30:58;;;;;;;18.67;7.18;;;9.20;99.90;;;;;;5004184;28;20116;-79
2023/06/04 03:33:24;;;;;;;16.85;7.32;;;9.10;99.90;;;;;;4987549;28;20125;-79
2023/06/04 03:35:52;;;;;;;13.98;6.45;;;9.10;99.90;;;;;;4956832;28;20124;-79
2023/06/04 03:38:18;;;;;;;10.70;6.15;;;9.10;99.90;;;;;;4986698;28;20163;-79
2023/06/04 03:40:45;;;;;;;13.50;7.32;;;9.10;99.90;;;;;;4991833;28;20073;-79
2023/06/04 03:43:11;;;;;;;15.02;7.90;;;9.10;99.90;;;;;;4997061;28;20108;-78
2023/06/04 03:45:37;;;;;;;14.75;6.82;;;9.10;99.90;;;;;;4998157;28;20037;-79
2023/06/04 03:48:02;;;;;;;17.40;7.88;;;9.10;99.90;;;;;;4985181;28;20077;-79
2023/06/04 03:50:28;;;;;;;14.57;7.25;;;9.10;99.90;;;;;;5002341;28;20459;-79
2023/06/04 03:52:54;;;;;;;15.27;7.13;;;9.10;99.90;;;;;;5007224;28;20044;-79
2023/06/04 03:55:19;;;;;;;12.85;7.35;;;9.10;99.90;;;;;;4989601;28;20117;-79
2023/06/04 03:57:45;;;;;;;16.73;7.43;;;9.10;99.90;;;;;;5000107;28;20042;-79
2023/06/04 04:00:13;;;;;;;12.80;8.40;;;9.10;99.90;;;;;;4983223;28;20581;-79
2023/06/04 04:02:39;;;;;;;15.40;7.03;;;9.10;99.90;;;;;;5005486;28;20091;-79
2023/06/04 04:05:05;;;;;;;13.80;7.30;;;9.10;99.90;;;;;;4991865;28;20178;-79
2023/06/04 04:07:31;;;;;;;16.27;8.05;;;9.10;99.90;;;;;;4992985;28;20135;-79
2023/06/04 04:09:57;;;;;;;17.08;8.05;;;9.10;99.90;;;;;;4987600;28;20041;-79
2023/06/04 04:12:22;;;;;;;16.73;7.90;;;9.10;99.90;;;;;;5010954;28;20077;-78
2023/06/04 04:14:48;;;;;;;16.23;8.38;;;9.00;99.90;;;;;;4968535;28;20054;-79
2023/06/04 04:17:14;;;;;;;15.02;7.80;;;9.10;99.90;;;;;;4989822;28;20034;-79
2023/06/04 04:19:40;;;;;;;11.70;7.88;;;9.10;99.90;;;;;;5006035;28;20655;-79
2023/06/04 04:22:06;;;;;;;15.18;8.82;;;9.10;99.90;;;;;;5008014;28;20057;-79
2023/06/04 04:24:34;;;;;;;17.98;8.45;;;9.10;99.90;;;;;;4975509;28;20049;-79
2023/06/04 04:27:00;;;;;;;17.40;7.93;;;9.10;99.90;;;;;;4991830;28;20519;-79
2023/06/04 04:29:27;;;;;;;11.93;8.00;;;9.10;99.90;;;;;;5024185;28;20073;-79
2023/06/04 04:31:57;;;;;;;16.48;7.80;;;9.20;99.90;;;;;;5007864;28;20119;-79
2023/06/04 04:34:25;;;;;;;14.52;7.68;;;9.20;99.90;;;;;;5023080;28;20037;-79
2023/06/04 04:36:54;;;;;;;16.02;8.18;;;9.20;99.90;;;;;;5003849;28;20200;-79
2023/06/04 04:39:24;;;;;;;15.93;8.50;;;9.30;99.90;;;;;;4978799;28;20045;-79
2023/06/04 04:41:50;;;;;;;21.05;9.05;;;9.30;99.90;;;;;;4991994;28;20034;-79
2023/06/04 04:44:16;;;;;;;18.67;8.75;;;9.40;99.90;;;;;;5005110;28;20248;-79
2023/06/04 04:46:42;;;;;;;19.98;9.40;;;9.40;99.90;;;;;;5006993;28;20576;-79
2023/06/04 04:49:08;;;;;;;18.02;8.23;;;9.40;99.90;;;;;;4976776;28;20505;-79
2023/06/04 04:51:33;;;;;;;18.90;8.73;;;9.30;99.90;;;;;;4993268;28;20190;-79
2023/06/04 04:54:02;;;;;;;14.43;8.45;;;9.50;99.90;;;;;;5004610;28;20045;-78
2023/06/04 04:56:28;;;;;;;16.90;9.23;;;9.60;99.90;;;;;;5008587;28;20113;-79
2023/06/04 04:58:55;;;;;;;17.42;8.85;;;9.60;99.90;;;;;;4979740;28;20041;-79
2023/06/04 05:01:21;;;;;;;20.45;9.43;;;9.70;99.90;;;;;;5010016;28;20783;-78
2023/06/04 05:03:48;;;;;;;15.95;8.57;;;9.80;99.90;;;;;;5010080;28;20126;-78
2023/06/04 05:06:14;;;;;;;16.23;9.98;;;9.80;99.90;;;;;;4995502;28;20040;-78
2023/06/04 05:08:40;;;;;;;21.00;9.73;;;9.90;99.90;;;;;;4996022;28;20037;-78
2023/06/04 05:11:06;;;;;;;18.75;10.00;;;10.00;99.90;;;;;;5010195;28;20041;-78
2023/06/04 05:13:31;;;;;;;15.73;10.07;;;10.00;99.90;;;;;;4978244;28;20048;-78
2023/06/04 05:15:57;;;;;;;18.88;9.88;;;10.10;99.90;;;;;;5006191;28;20049;-78
2023/06/04 05:18:28;;;;;;;21.55;10.20;;;10.20;99.90;;;;;;4961328;28;20343;-78
2023/06/04 05:20:55;;;;;;;18.63;9.30;;;10.30;99.90;;;;;;4968164;28;20021;-78
2023/06/04 05:23:21;;;;;;;22.83;9.73;;;10.40;99.90;;;;;;5022650;28;20030;-78
2023/06/04 05:25:48;;;;;;;15.82;10.25;;;10.50;99.90;;;;;;5023985;28;20069;-78
2023/06/04 05:28:15;;;;;;;21.85;11.07;;;10.60;99.90;;;;;;5021406;28;20093;-78
2023/06/04 05:30:41;;;;;;;17.55;9.98;;;10.70;99.90;;;;;;5008197;28;20115;-78
2023/06/04 05:33:17;;;;;;;18.23;9.90;;;10.80;99.90;;;;;;5007499;28;20081;-78
2023/06/04 05:35:48;;;;;;;21.38;10.07;;;10.90;99.90;;;;;;5038500;28;20046;-78
2023/06/04 05:38:18;;;;;;;19.50;9.80;;;11.00;99.90;;;;;;5007399;28;20071;-78
2023/06/04 05:40:45;;;;;;;17.33;9.80;;;11.10;99.90;;;;;;5010987;28;20600;-78
2023/06/04 05:43:10;;;;;;;21.13;9.88;;;11.10;99.90;;;;;;5015346;28;20038;-78
2023/06/04 05:45:36;;;;;;;20.15;10.13;;;11.20;99.90;;;;;;5002234;28;20050;-78
2023/06/04 05:48:02;;;;;;;18.55;9.80;;;11.30;99.90;;;;;;5022827;28;20516;-79
2023/06/04 05:50:28;;;;;;;17.17;9.82;;;11.40;99.90;;;;;;4984978;28;20041;-78
2023/06/04 05:52:54;;;;;;;15.30;9.63;;;11.40;99.90;;;;;;4985990;28;20037;-78
2023/06/04 05:55:21;;;;;;;17.38;9.35;;;11.50;99.90;;;;;;5005945;28;20493;-78
2023/06/04 05:57:46;;;;;;;19.42;9.43;;;11.60;99.90;;;;;;5021924;28;20088;-78
2023/06/04 06:00:13;;;;;;;20.73;9.60;;;11.70;99.90;;;;;;5017644;28;20045;-78
2023/06/04 06:02:40;;;;;;;17.40;9.00;;;11.80;99.90;;;;;;5003002;28;20037;-78
2023/06/04 06:05:08;;;;;;;18.52;9.60;;;11.80;99.90;;;;;;5036359;28;20168;-77
2023/06/04 06:07:34;;;;;;;18.23;9.73;;;11.90;99.90;;;;;;5000191;28;20041;-78
2023/06/04 06:10:00;;;;;;;18.25;9.40;;;12.00;99.90;;;;;;5017825;28;20049;-79
2023/06/04 06:12:26;;;;;;;15.13;8.23;;;12.10;99.90;;;;;;5001837;28;20041;-77
2023/06/04 06:14:51;;;;;;;17.50;8.73;;;12.20;99.90;;;;;;4984995;28;20116;-78
2023/06/04 06:17:17;;;;;;;14.02;8.93;;;12.30;99.90;;;;;;4983831;28;20052;-80
2023/06/04 06:19:43;;;;;;;19.50;9.05;;;12.40;99.90;;;;;;5018759;28;20101;-79
2023/06/04 06:22:08;;;;;;;11.45;7.13;;;12.50;99.90;;;;;;4999953;28;20037;-78
2023/06/04 06:24:34;;;;;;;13.68;8.02;;;12.70;99.90;;;;;;5000121;28;20509;-78
2023/06/04 06:27:00;;;;;;;16.65;6.78;;;12.80;99.90;;;;;;4998676;28;20128;-78
2023/06/04 06:29:25;;;;;;;19.00;6.05;;;12.90;99.90;;;;;;5000200;28;20420;-78
2023/06/04 06:31:51;;;;;;;9.95;6.13;;;13.00;99.90;;;;;;4988930;28;20053;-79
2023/06/04 06:34:17;;;;;;;11.02;6.22;;;13.10;99.90;;;;;;4998652;28;20048;-78
2023/06/04 06:36:44;;;;;;;13.18;6.35;;;13.10;99.90;;;;;;4999713;28;20055;-78
2023/06/04 06:39:10;;;;;;;8.88;5.80;;;13.20;99.90;;;;;;5003241;28;20116;-79
2023/06/04 06:41:38;;;;;;;9.93;5.65;;;13.30;99.90;;;;;;5002241;28;20057;-79
2023/06/04 06:44:05;;;;;;;12.07;5.65;;;13.40;99.90;;;;;;5002907;28;20033;-78
2023/06/04 06:46:30;;;;;;;11.18;5.18;;;13.50;99.90;;;;;;5018269;28;20077;-79
2023/06/04 06:48:56;;;;;;;9.98;4.78;;;13.60;99.90;;;;;;5008520;28;20057;-79
2023/06/04 06:51:22;;;;;;;10.00;4.45;;;13.80;99.90;;;;;;4987088;28;20033;-79
2023/06/04 06:53:50;;;;;;;10.73;4.40;;;13.90;99.90;;;;;;5002262;28;20063;-79
2023/06/04 06:56:17;;;;;;;7.68;4.13;;;14.00;99.90;;;;;;5020860;28;20049;-79
2023/06/04 06:58:45;;;;;;;7.97;4.50;;;14.10;99.90;;;;;;5015193;28;20037;-79
2023/06/04 07:01:10;;;;;;;8.68;4.85;;;14.20;99.90;;;;;;5000396;28;20033;-79
2023/06/04 07:03:38;;;;;;;8.55;3.85;;;14.30;99.90;;;;;;5016066;28;20384;-79
2023/06/04 07:06:04;;;;;;;10.65;4.75;;;14.40;99.90;;;;;;5015577;28;20099;-79
2023/06/04 07:08:29;;;;;;;8.15;4.07;;;14.50;99.90;;;;;;5019465;28;20048;-78
2023/06/04 07:10:55;;;;;;;7.57;3.65;;;14.70;99.90;;;;;;4981249;28;20041;-78
2023/06/04 07:13:21;;;;;;;7.75;3.75;;;14.80;99.90;;;;;;5001090;28;20476;-78
2023/06/04 07:15:46;;;;;;;11.13;4.18;;;15.00;99.90;;;;;;4994370;28;20055;-78
2023/06/04 07:18:12;;;;;;;8.35;3.40;;;15.10;99.90;;;;;;4978057;28;20161;-78
2023/06/04 07:20:38;;;;;;;10.68;3.72;;;15.20;99.90;;;;;;4995475;28;20041;-78
2023/06/04 07:23:04;;;;;;;7.85;3.33;;;15.40;99.90;;;;;;4988495;28;20049;-78
2023/06/04 07:25:30;;;;;;;8.13;3.30;;;15.50;99.90;;;;;;4999005;28;20144;-78
2023/06/04 07:27:58;;;;;;;7.03;3.08;;;15.60;99.90;;;;;;5013016;28;20544;-79
2023/06/04 07:30:25;;;;;;;7.70;3.58;;;15.70;99.90;;;;;;4995015;28;20495;-78
2023/06/04 07:32:51;;;;;;;9.27;3.60;;;15.80;99.90;;;;;;5023362;28;20037;-79
2023/06/04 07:35:17;;;;;;;7.43;3.67;;;15.90;99.90;;;;;;5004248;28;20045;-79
2023/06/04 07:37:44;;;;;;;9.68;3.55;;;15.90;99.90;;;;;;4989783;28;20104;-79
2023/06/04 07:40:11;;;;;;;5.45;3.80;;;16.10;99.90;;;;;;5005704;28;20040;-78
2023/06/04 07:42:37;;;;;;;7.30;3.58;;;16.20;99.90;;;;;;4987962;28;20034;-78
2023/06/04 07:45:03;;;;;;;10.10;3.78;;;16.30;99.90;;;;;;5005771;28;20042;-77
2023/06/04 07:47:29;;;;;;;7.95;3.70;;;16.50;99.90;;;;;;4989862;28;20129;-78
2023/06/04 07:49:55;;;;;;;5.60;3.25;;;16.60;99.90;;;;;;4974246;28;20165;-78
2023/06/04 07:52:21;;;;;;;8.20;3.28;;;16.70;99.90;;;;;;5007059;28;20054;-78
2023/06/04 07:54:46;;;;;;;11.65;3.47;;;16.80;99.90;;;;;;4991215;28;20514;-77
2023/06/04 07:57:12;;;;;;;6.50;3.22;;;16.90;99.90;;;;;;4989955;28;20093;-77
2023/06/04 07:59:38;;;;;;;8.68;3.20;;;17.00;99.90;;;;;;5008333;28;20033;-78
2023/06/04 08:02:04;;;;;;;7.38;3.40;;;17.10;99.90;;;;;;4973103;28;20029;-78
2023/06/04 08:04:29;;;;;;;6.88;3.13;;;17.30;99.90;;;;;;4989344;28;20247;-78
2023/06/04 08:06:55;;;;;;;9.35;2.60;;;17.40;99.90;;;;;;5005022;28;20045;-68
2023/06/04 08:09:21;;;;;;;5.22;2.30;;;17.50;99.90;;;;;;5017840;28;20050;-67
2023/06/04 08:11:47;;;;;;;10.60;3.03;;;17.60;99.90;;;;;;4986497;28;20451;-67
2023/06/04 08:14:13;;;;;;;9.15;3.08;;;17.60;99.90;;;;;;4987727;28;20550;-66
2023/06/04 08:16:40;;;;;;;7.38;2.42;;;17.80;98.80;;;;;;5003231;28;20080;-66
2023/06/04 08:19:07;;;;;;;4.75;2.47;;;17.90;99.80;;;;;;4987291;28;20121;-66
2023/06/04 08:21:33;;;;;;;5.22;2.38;;;18.00;99.90;;;;;;4985114;28;20038;-65
2023/06/04 08:23:59;;;;;;;5.78;2.13;;;18.10;98.60;;;;;;5005304;28;20045;-65
2023/06/04 08:26:26;;;;;;;5.55;2.72;;;18.20;98.50;;;;;;4955356;28;20282;-66
2023/06/04 08:28:52;;;;;;;8.43;2.90;;;18.40;99.40;;;;;;4986189;28;20078;-66
2023/06/04 08:31:18;;;;;;;8.10;2.80;;;18.50;99.10;;;;;;4991216;28;20103;-67
2023/06/04 08:33:47;;;;;;;5.00;2.60;;;18.60;98.60;;;;;;5010199;28;20046;-65
2023/06/04 08:36:13;;;;;;;8.48;3.22;;;18.70;98.30;;;;;;4991473;28;20029;-66
2023/06/04 08:38:39;;;;;;;4.55;2.40;;;18.90;98.00;;;;;;4992977;28;20376;-66
2023/06/04 08:41:29;;;;;;;4.75;2.08;;;19.00;98.10;;;;;;5013403;28;20049;-65
2023/06/04 08:44:01;;;;;;;6.65;2.20;;;19.20;96.20;;;;;;5009084;28;20053;-68
2023/06/04 08:46:28;;;;;;;4.13;2.28;;;19.30;96.30;;;;;;5010124;28;20069;-66
2023/06/04 08:48:56;;;;;;;4.72;2.20;;;19.50;96.10;;;;;;5017833;28;20172;-66
2023/06/04 08:51:22;;;;;;;6.45;2.60;;;19.60;95.70;;;;;;4983486;28;20052;-66
2023/06/04 08:53:52;;;;;;;4.05;2.38;;;19.70;95.30;;;;;;4994256;28;20038;-67
2023/06/04 08:56:19;;;;;;;4.47;2.10;;;19.70;95.10;;;;;;5008832;28;20057;-67
2023/06/04 08:58:46;;;;;;;8.48;2.15;;;19.80;95.70;;;;;;5010141;28;20443;-67
2023/06/04 09:01:14;;;;;;;3.50;2.20;;;19.90;95.20;;;;;;4988987;28;20117;-67
2023/06/04 09:03:41;;;;;;;10.50;2.35;;;19.90;94.80;;;;;;5005540;28;20096;-66
2023/06/04 09:06:08;;;;;;;8.18;2.45;;;20.00;94.60;;;;;;5013734;28;20527;-79
2023/06/04 09:08:37;;;;;;;4.90;2.30;;;20.00;94.00;;;;;;4993108;28;20108;-79
2023/06/04 09:11:10;;;;;;;6.55;2.13;;;20.10;94.10;;;;;;4994588;28;20726;-80
2023/06/04 09:13:36;;;;;;;4.03;1.95;;;20.20;92.70;;;;;;4992704;28;20036;-79
2023/06/04 09:16:03;;;;;;;5.63;2.22;;;20.20;92.90;;;;;;4969062;28;20049;-79
2023/06/04 09:18:30;;;;;;;4.13;2.42;;;20.30;92.70;;;;;;4990466;28;20046;-79
2023/06/04 09:21:07;;;;;;;7.80;2.38;;;20.40;92.80;;;;;;4974871;28;20056;-78
2023/06/04 09:23:52;;;;;;;5.10;1.90;;;20.40;92.30;;;;;;5017753;28;20081;-78
2023/06/04 09:26:18;;;;;;;4.57;2.10;;;20.60;92.50;;;;;;4995406;28;20097;-78
2023/06/04 09:28:46;;;;;;;4.05;1.80;;;20.60;92.10;;;;;;4968199;28;20033;-78
2023/06/04 09:31:16;;;;;;;3.22;1.77;;;20.70;91.50;;;;;;4981316;28;20038;-78
2023/06/04 09:33:46;;;;;;;3.42;1.90;;;20.90;91.60;;;;;;4984266;28;20534;-78
2023/06/04 09:36:13;;;;;;;3.35;1.60;;;20.80;89.10;;;;;;5009635;28;20057;-77
2023/06/04 09:38:39;;;;;;;4.28;1.65;;;21.00;90.00;;;;;;4994544;28;20041;-78
2023/06/04 09:41:11;;;;;;;4.47;2.22;;;21.00;87.80;;;;;;4985779;28;20030;-78
2023/06/04 09:43:36;;;;;;;6.45;2.05;;;20.90;86.70;;;;;;4973333;28;20030;-78
2023/06/04 09:46:13;;;;;;;5.30;2.25;;;21.00;86.60;;;;;;5008402;28;20038;-78
2023/06/04 09:48:40;;;;;;;4.70;1.95;;;21.20;88.90;;;;;;4984214;28;20505;-78
2023/06/04 09:51:07;;;;;;;6.00;2.05;;;21.30;87.10;;;;;;4975036;28;20042;-78
2023/06/04 09:53:33;;;;;;;6.43;2.38;;;21.50;87.20;;;;;;4973353;28;20050;-78
2023/06/04 09:56:01;;;;;;;3.75;2.00;;;21.50;85.90;;;;;;4984425;28;20178;-78
2023/06/04 09:58:28;;;;;;;5.28;1.98;;;21.50;84.10;;;;;;5006507;28;20057;-78
2023/06/04 10:01:00;;;;;;;9.55;2.42;;;21.50;85.70;;;;;;4943299;28;20117;-78
2023/06/04 10:03:30;;;;;;;4.20;1.85;;;21.60;84.60;;;;;;4985569;28;20042;-78
2023/06/04 10:06:00;;;;;;;5.35;2.35;;;21.60;85.30;;;;;;4993763;28;20096;-78
2023/06/04 10:08:26;;;;;;;4.75;2.03;;;21.70;83.50;;;;;;4950703;28;20070;-78
2023/06/04 10:10:57;;;;;;;6.30;2.30;;;21.80;84.80;;;;;;4974679;28;20122;-78
2023/06/04 10:13:26;;;;;;;5.35;2.13;;;22.00;84.00;;;;;;4979304;28;20039;-78
2023/06/04 10:15:53;;;;;;;6.80;2.30;;;22.00;83.40;;;;;;4993047;28;20284;-78
2023/06/04 10:18:19;;;;;;;4.38;2.13;;;22.00;83.00;;;;;;5023841;28;20045;-78
2023/06/04 10:20:45;;;;;;;5.00;2.35;;;22.20;82.70;;;;;;4975365;28;20128;-78
2023/06/04 10:23:12;;;;;;;4.35;1.92;;;22.30;82.80;;;;;;5014149;28;20117;-78
2023/06/04 10:25:38;;;;;;;4.43;2.10;;;22.50;83.80;;;;;;5031393;28;20459;-78
2023/06/04 10:28:04;;;;;;;5.60;2.03;;;22.50;82.80;;;;;;5008026;28;20045;-78
2023/06/04 10:30:30;;;;;;;6.35;2.33;;;22.50;81.80;;;;;;5013198;28;20033;-78
2023/06/04 10:32:57;;;;;;;3.97;2.33;;;22.50;81.70;;;;;;4993356;28;20090;-78
2023/06/04 10:35:34;;;;;;;4.18;2.05;;;22.50;82.40;;;;;;4999283;28;20077;-82
2023/06/04 10:38:11;;;;;;;3.15;1.80;;;22.50;80.00;;;;;;4978528;28;20033;-66
2023/06/04 10:40:37;;;;;;;9.32;6.63;;;22.50;79.30;;;;;;5023990;28;20087;-68
2023/06/04 10:43:11;;;;;;;6.55;3.53;;;22.60;80.80;;;;;;5007987;28;20506;-67
2023/06/04 10:45:37;;;;;;;6.88;2.10;;;22.70;80.20;;;;;;5010776;28;20053;-66
2023/06/04 10:48:11;;;;;;;7.53;2.38;;;22.70;79.00;;;;;;5017421;28;20480;-65
2023/06/04 10:50:51;;;;;;;4.38;2.20;;;22.60;77.80;;;;;;5014391;28;20060;-66
2023/06/04 10:53:19;;;;;;;3.10;1.80;;;22.70;78.40;;;;;;5015280;28;20070;-66
2023/06/04 10:55:46;;;;;;;4.53;2.03;;;22.70;79.30;;;;;;5018307;28;21152;-66
2023/06/04 10:58:12;;;;;;;4.55;2.25;;;22.80;78.90;;;;;;4991402;28;20084;-68
2023/06/04 11:00:39;;;;;;;5.72;2.47;;;22.80;78.90;;;;;;5024633;28;20056;-66
2023/06/04 11:03:09;;;;;;;6.32;2.22;;;22.90;78.90;;;;;;5022349;28;20037;-66
2023/06/04 11:05:43;;;;;;;4.43;1.85;;;23.00;78.90;;;;;;5021403;28;20124;-66
2023/06/04 11:08:10;;;;;;;2.60;1.70;;;23.10;77.30;;;;;;5017177;28;20037;-66
2023/06/04 11:10:38;;;;;;;4.32;2.00;;;23.00;77.60;;;;;;5017008;28;20060;-66
2023/06/04 11:13:04;;;;;;;7.88;2.35;;;23.00;76.70;;;;;;5017688;28;20033;-67
2023/06/04 11:15:44;;;;;;;3.30;1.80;;;23.00;77.20;;;;;;5021007;28;20118;-67
2023/06/04 11:18:19;;;;;;;3.45;1.95;;;23.00;76.10;;;;;;5013847;28;20041;-68
2023/06/04 11:20:49;;;;;;;4.22;2.15;;;23.10;75.30;;;;;;5011955;28;20128;-66
2023/06/04 11:23:16;;;;;;;3.22;2.17;;;23.10;74.90;;;;;;5029840;28;20037;-67
2023/06/04 11:25:43;;;;;;;4.85;1.88;;;23.10;74.80;;;;;;5026077;28;20059;-68
2023/06/04 11:28:17;;;;;;;7.65;3.10;;;23.10;75.80;;;;;;5025961;28;20041;-67
2023/06/04 11:30:42;;;;;;;7.53;2.63;;;23.10;74.80;;;;;;5025597;28;20048;-67
2023/06/04 11:33:08;;;;;;;4.32;2.05;;;23.00;74.80;;;;;;5015167;28;20029;-68
2023/06/04 11:35:42;;;;;;;3.38;1.85;;;23.10;74.40;;;;;;5026406;28;20351;-79
2023/06/04 11:38:09;;;;;;;6.20;2.03;;;23.30;72.60;;;;;;4993839;28;20090;-79
2023/06/04 11:40:35;;;;;;;5.63;1.83;;;23.30;73.70;;;;;;4979611;28;20041;-79
2023/06/04 11:43:02;;;;;;;3.80;1.70;;;23.40;72.70;;;;;;5004297;28;20038;-78
2023/06/04 11:45:29;;;;;;;6.93;2.03;;;23.50;73.80;;;;;;5010650;28;20501;-79
2023/06/04 11:47:56;;;;;;;3.80;2.15;;;23.50;72.10;;;;;;4979710;28;20043;-79
2023/06/04 11:50:25;;;;;;;3.42;1.85;;;23.60;72.40;;;;;;5011010;28;20038;-78
2023/06/04 11:52:52;;;;;;;3.97;2.17;;;23.70;72.60;;;;;;4996116;28;20045;-78
2023/06/04 11:55:20;;;;;;;3.15;2.17;;;23.80;72.10;;;;;;4995254;28;20056;-78
2023/06/04 11:57:47;;;;;;;6.15;2.10;;;23.80;72.30;;;;;;4995525;28;20045;-78
2023/06/04 12:00:15;;;;;;;3.17;1.95;;;23.90;71.60;;;;;;5010889;28;20072;-78
2023/06/04 12:02:55;;;;;;;5.03;1.80;;;23.80;70.50;;;;;;4995286;28;20037;-78
2023/06/04 12:05:23;;;;;;;3.70;1.80;;;23.80;70.00;;;;;;5013080;28;20083;-78
2023/06/04 12:07:52;;;;;;;3.80;1.88;;;23.80;70.30;;;;;;5015964;28;20634;-79
2023/06/04 12:10:19;;;;;;;3.40;1.90;;;23.80;70.60;;;;;;5009640;28;20505;-78
2023/06/04 12:12:45;;;;;;;4.22;1.92;;;23.80;70.50;;;;;;4999560;28;20068;-78
2023/06/04 12:15:12;;;;;;;4.82;1.88;;;23.90;70.50;;;;;;4999291;28;20088;-78
2023/06/04 12:17:48;;;;;;;6.90;2.25;;;23.90;69.50;;;;;;5008460;28;20038;-79
2023/06/04 12:20:14;;;;;;;1.98;1.55;;;23.80;68.20;;;;;;5021969;28;20096;-78
2023/06/04 12:22:46;;;;;;;2.38;1.70;;;23.90;69.30;;;;;;4996268;28;20038;-79
2023/06/04 12:25:23;;;;;;;2.85;1.85;;;24.10;70.00;;;;;;5028502;28;20104;-79
2023/06/04 12:27:48;;;;;;;3.45;1.70;;;24.10;68.50;;;;;;4994716;28;20042;-79
2023/06/04 12:30:15;;;;;;;4.40;2.20;;;24.20;68.70;;;;;;4978190;28;20410;-79
2023/06/04 12:32:42;;;;;;;4.07;1.90;;;24.10;68.00;;;;;;4995527;28;20100;-79
2023/06/04 12:35:08;;;;;;;3.58;2.00;;;24.00;67.80;;;;;;4988234;28;20040;-79
2023/06/04 12:37:33;;;;;;;8.80;1.98;;;23.90;66.50;;;;;;5011998;28;20080;-78
2023/06/04 12:39:59;;;;;;;4.40;1.80;;;23.90;67.00;;;;;;4995788;28;20042;-79
2023/06/04 12:42:25;;;;;;;4.82;1.67;;;23.90;67.70;;;;;;5011290;28;20065;-80
2023/06/04 12:44:51;;;;;;;3.03;1.75;;;24.00;67.60;;;;;;4993971;28;20503;-79
2023/06/04 12:47:16;;;;;;;5.40;1.92;;;24.00;67.60;;;;;;4994498;28;20129;-80